Pleasant Grove, Alabama
Current Conditions -  °F | °C
As of 8:40 AM on Monday 26 Jan 2015 (Local Time) from KBHM Reporting Station
Overcast Overcast  
Wind Chill: 30°   Ceiling: 900
Heat Index: 39°   Visibility: 8mi
Dew Point: 36°   Wind: 17mph
Humidity: 89%   Direction: 310°NW
Pressure: 30"   Gusts: NA
Location:  33.49°N, 86.97°W
Report Text: KBHM 261440Z 31015KT 8SM OVC009 04/02 A3000 RMK AO2 CIG 009V012 T00390022
Loading
Personal Weather Stations






























Interactive Weather Map New forecast layout! Learn more

10-Day Weather Forecast

Advertisements
Track Severe Weather on mobile